Time;durP1;ratioP1;P1;durP2;ratioP2;P2;SDS_P1;SDS_P2;PMS_P1;PMS_P2;Temp;Humidity;BMP_temperature;BMP_pressure;BME280_temperature;BME280_humidity;BME280_pressure;Samples;Min_cycle;Max_cycle;Signal;HPM_P1;HPM_P2
2024/01/03 00:01:02;;;;;;;7.50;6.10;;;4.30;99.90;;;;;;5003852;28;20497;-79
2024/01/03 00:03:31;;;;;;;6.33;5.60;;;4.30;99.90;;;;;;5002542;28;20578;-76
2024/01/03 00:06:00;;;;;;;5.40;5.00;;;4.40;99.90;;;;;;5002083;28;20508;-80
2024/01/03 00:08:28;;;;;;;8.10;4.10;;;4.40;99.90;;;;;;5002384;28;20442;-76
2024/01/03 00:10:56;;;;;;;6.10;4.77;;;4.40;99.90;;;;;;5006900;28;20466;-79
2024/01/03 00:14:02;;;;;;;3.63;3.40;;;4.40;99.90;;;;;;5023153;28;20442;-77
2024/01/03 00:16:31;;;;;;;3.27;2.80;;;4.40;99.90;;;;;;5021758;28;21003;-76
2024/01/03 00:18:59;;;;;;;3.77;2.20;;;4.40;99.90;;;;;;5005391;28;20463;-76
2024/01/03 00:21:28;;;;;;;2.73;2.40;;;4.40;99.90;;;;;;4991509;28;20459;-77
2024/01/03 00:23:57;;;;;;;2.10;1.90;;;4.40;99.90;;;;;;5003095;28;20486;-76
2024/01/03 00:26:24;;;;;;;3.70;3.40;;;4.50;99.90;;;;;;5003281;28;20459;-76
2024/01/03 00:28:51;;;;;;;5.90;4.80;;;4.50;99.90;;;;;;5002684;28;20443;-76
2024/01/03 00:31:38;;;;;;;3.00;2.80;;;4.50;99.90;;;;;;5002285;28;21735;-80
2024/01/03 00:34:20;;;;;;;1.70;1.60;;;4.40;99.90;;;;;;5002325;28;20533;-76
2024/01/03 00:36:48;;;;;;;1.37;1.20;;;4.50;99.90;;;;;;5002691;28;20535;-76
2024/01/03 00:39:15;;;;;;;2.73;2.47;;;4.60;99.90;;;;;;4998834;28;20546;-79
2024/01/03 00:41:42;;;;;;;5.23;1.70;;;4.60;99.90;;;;;;5003348;28;20447;-81
2024/01/03 00:44:09;;;;;;;2.53;2.37;;;4.60;99.90;;;;;;5002754;28;20560;-77
2024/01/03 00:46:38;;;;;;;3.10;2.90;;;4.60;99.90;;;;;;5002085;28;20927;-80
2024/01/03 00:49:07;;;;;;;3.90;1.90;;;4.70;99.90;;;;;;5003057;28;20458;-77
2024/01/03 00:51:34;;;;;;;4.63;3.67;;;4.70;99.90;;;;;;4997450;28;20450;-80
2024/01/03 00:54:01;;;;;;;9.33;8.30;;;4.60;99.90;;;;;;5002062;28;20521;-79
2024/01/03 00:56:28;;;;;;;9.73;8.73;;;4.60;99.90;;;;;;5002614;28;20515;-77
2024/01/03 00:58:55;;;;;;;8.20;7.17;;;4.50;99.90;;;;;;5001997;28;20462;-76
2024/01/03 01:01:22;;;;;;;5.20;4.70;;;4.60;99.90;;;;;;4989436;28;20531;-77
2024/01/03 01:03:51;;;;;;;6.50;5.90;;;4.60;99.90;;;;;;5004963;28;21001;-79
2024/01/03 01:06:18;;;;;;;5.30;4.80;;;4.50;99.90;;;;;;5005397;28;20447;-77
2024/01/03 01:08:44;;;;;;;4.60;4.30;;;4.50;99.90;;;;;;5000308;28;20468;-78
2024/01/03 01:11:11;;;;;;;3.63;3.33;;;4.50;99.90;;;;;;4999401;28;20446;-78
2024/01/03 01:13:38;;;;;;;3.07;2.80;;;4.50;99.90;;;;;;5005243;28;20485;-76
2024/01/03 01:16:06;;;;;;;2.13;1.83;;;4.60;99.90;;;;;;5004422;28;20519;-77
2024/01/03 01:18:33;;;;;;;3.97;3.57;;;4.70;99.90;;;;;;5035728;28;20455;-79
2024/01/03 01:21:02;;;;;;;2.30;1.50;;;4.80;99.90;;;;;;5005007;28;20500;-77
2024/01/03 01:23:29;;;;;;;1.93;1.63;;;5.00;99.90;;;;;;5004940;28;20525;-78
2024/01/03 01:25:56;;;;;;;2.17;1.97;;;5.10;99.90;;;;;;5004740;28;21003;-80
2024/01/03 01:28:23;;;;;;;1.90;1.47;;;5.10;99.90;;;;;;5004670;28;20451;-77
2024/01/03 01:30:50;;;;;;;1.63;1.33;;;5.20;99.90;;;;;;5004327;28;20849;-79
2024/01/03 01:33:17;;;;;;;1.37;0.80;;;5.20;99.90;;;;;;5005714;28;20451;-79
2024/01/03 01:35:43;;;;;;;0.50;0.50;;;5.30;99.90;;;;;;5005805;28;20523;-77
2024/01/03 01:38:12;;;;;;;0.67;0.50;;;5.40;99.90;;;;;;5003287;28;20470;-77
2024/01/03 01:40:39;;;;;;;1.63;0.53;;;5.50;99.90;;;;;;5035236;28;21219;-77
2024/01/03 01:43:06;;;;;;;1.67;0.50;;;5.50;99.90;;;;;;5006112;28;20519;-77
2024/01/03 01:45:33;;;;;;;1.13;0.60;;;5.70;99.90;;;;;;5003340;28;20539;-77
2024/01/03 01:48:01;;;;;;;1.10;0.90;;;5.80;99.90;;;;;;5006738;28;20459;-77
2024/01/03 01:50:28;;;;;;;1.37;0.60;;;5.80;99.90;;;;;;5004757;28;20443;-79
2024/01/03 01:52:58;;;;;;;1.00;0.70;;;5.90;99.90;;;;;;5002687;28;20475;-78
2024/01/03 01:55:26;;;;;;;0.93;0.50;;;5.90;99.90;;;;;;5019774;28;20514;-77
2024/01/03 01:57:54;;;;;;;0.97;0.70;;;6.00;99.90;;;;;;4992599;28;20501;-77
2024/01/03 02:00:21;;;;;;;2.40;2.30;;;6.00;99.90;;;;;;5013016;28;20452;-76
2024/01/03 02:02:50;;;;;;;0.67;0.60;;;5.80;99.90;;;;;;5004896;28;20819;-80
2024/01/03 02:05:18;;;;;;;0.73;0.50;;;5.80;99.90;;;;;;4996965;28;20907;-77
2024/01/03 02:07:45;;;;;;;0.80;0.60;;;5.60;99.90;;;;;;5017935;28;20463;-76
2024/01/03 02:10:12;;;;;;;1.17;0.50;;;5.50;99.90;;;;;;5005191;28;20550;-78
2024/01/03 02:12:40;;;;;;;0.63;0.60;;;5.50;99.90;;;;;;5035872;28;20532;-77
2024/01/03 02:15:07;;;;;;;1.37;0.90;;;5.40;99.90;;;;;;4999548;28;20526;-76
2024/01/03 02:17:37;;;;;;;1.10;0.90;;;5.40;99.90;;;;;;5008545;28;20481;-77
2024/01/03 02:20:05;;;;;;;1.10;0.73;;;5.50;99.90;;;;;;4998324;28;20547;-77
2024/01/03 02:22:33;;;;;;;4.23;1.43;;;5.40;99.90;;;;;;4998692;28;20473;-78
2024/01/03 02:25:00;;;;;;;2.10;0.87;;;5.30;99.90;;;;;;5003869;28;20586;-77
2024/01/03 02:27:27;;;;;;;1.03;0.73;;;5.30;99.90;;;;;;4998740;28;20523;-77
2024/01/03 02:29:54;;;;;;;0.70;0.60;;;5.30;99.90;;;;;;5000969;28;20539;-77
2024/01/03 02:32:21;;;;;;;0.50;0.40;;;5.30;99.90;;;;;;5003070;28;20854;-77
2024/01/03 02:34:48;;;;;;;0.60;0.50;;;5.30;99.90;;;;;;4995373;28;20475;-77
2024/01/03 02:37:18;;;;;;;0.63;0.60;;;5.30;99.90;;;;;;5004341;28;20512;-77
2024/01/03 02:39:46;;;;;;;1.00;0.50;;;5.30;99.90;;;;;;4994806;28;20468;-75
2024/01/03 02:42:13;;;;;;;0.40;0.33;;;5.30;99.90;;;;;;4999283;28;20457;-77
2024/01/03 02:44:40;;;;;;;0.53;0.43;;;5.30;99.90;;;;;;5003504;28;20622;-76
2024/01/03 02:47:07;;;;;;;1.03;0.57;;;5.20;99.90;;;;;;5003528;28;20935;-75
2024/01/03 02:49:34;;;;;;;1.00;0.40;;;5.20;99.90;;;;;;4995886;28;20441;-80
2024/01/03 02:52:01;;;;;;;0.50;0.40;;;5.30;99.90;;;;;;5004460;28;20455;-79
2024/01/03 02:54:28;;;;;;;1.00;0.40;;;5.40;99.90;;;;;;5001694;28;20523;-79
2024/01/03 02:56:57;;;;;;;0.60;0.40;;;5.40;99.90;;;;;;5004121;28;21217;-75
2024/01/03 02:59:25;;;;;;;1.33;0.60;;;5.50;99.90;;;;;;5001778;28;20460;-77
2024/01/03 03:01:52;;;;;;;0.50;0.40;;;5.60;99.90;;;;;;5003157;28;21132;-77
2024/01/03 03:04:19;;;;;;;0.50;0.40;;;5.80;99.90;;;;;;5002934;28;20578;-76
2024/01/03 03:06:46;;;;;;;1.27;0.43;;;5.90;99.90;;;;;;5002650;28;20936;-76
2024/01/03 03:09:13;;;;;;;0.50;0.40;;;6.00;99.90;;;;;;5002991;28;20468;-79
2024/01/03 03:11:40;;;;;;;0.53;0.40;;;6.00;99.90;;;;;;4997806;28;20524;-76
2024/01/03 03:14:10;;;;;;;0.40;0.40;;;6.20;99.90;;;;;;5003785;28;20512;-77
2024/01/03 03:16:36;;;;;;;0.50;0.40;;;6.40;99.90;;;;;;5017900;28;20471;-76
2024/01/03 03:19:05;;;;;;;0.60;0.50;;;6.30;99.90;;;;;;5006063;28;20450;-76
2024/01/03 03:21:32;;;;;;;1.07;0.67;;;6.20;99.90;;;;;;5001497;28;20463;-76
2024/01/03 03:24:00;;;;;;;0.80;0.60;;;6.00;99.90;;;;;;5003449;28;20532;-76
2024/01/03 03:26:27;;;;;;;1.10;0.90;;;6.00;99.90;;;;;;5003278;28;20482;-76
2024/01/03 03:28:54;;;;;;;1.80;0.70;;;5.90;99.90;;;;;;5002696;28;20464;-78
2024/01/03 03:31:23;;;;;;;0.50;0.50;;;6.00;99.90;;;;;;5002087;28;20456;-76
2024/01/03 03:33:50;;;;;;;0.50;0.30;;;6.10;99.90;;;;;;5003056;28;20459;-77
2024/01/03 03:36:17;;;;;;;0.83;0.30;;;6.30;99.90;;;;;;5002241;28;20912;-78
2024/01/03 03:38:44;;;;;;;0.40;0.30;;;6.60;99.90;;;;;;4999903;28;20477;-77
2024/01/03 03:41:11;;;;;;;0.40;0.30;;;6.80;99.90;;;;;;5002864;28;20787;-76
2024/01/03 03:43:39;;;;;;;1.00;0.30;;;7.10;99.90;;;;;;5003465;28;20519;-77
2024/01/03 03:46:06;;;;;;;0.40;0.20;;;7.40;99.90;;;;;;5003693;28;20448;-78
2024/01/03 03:48:35;;;;;;;0.40;0.30;;;7.50;99.90;;;;;;5002261;28;20524;-77
2024/01/03 03:51:02;;;;;;;1.17;0.40;;;7.60;99.90;;;;;;5002938;28;20539;-77
2024/01/03 03:53:30;;;;;;;0.63;0.27;;;7.80;99.90;;;;;;5002917;28;20506;-76
2024/01/03 03:55:56;;;;;;;0.50;0.30;;;8.00;99.90;;;;;;5002869;28;20453;-79
2024/01/03 03:58:23;;;;;;;0.40;0.27;;;8.10;99.90;;;;;;5005340;28;20452;-79
2024/01/03 04:00:50;;;;;;;0.40;0.30;;;8.00;99.90;;;;;;5011076;28;20459;-76
2024/01/03 04:03:17;;;;;;;0.63;0.33;;;8.00;99.90;;;;;;5000123;28;20473;-76
2024/01/03 04:05:46;;;;;;;0.40;0.30;;;8.10;99.90;;;;;;5008968;28;20486;-75
2024/01/03 04:08:12;;;;;;;0.50;0.20;;;8.10;99.90;;;;;;5003528;28;20446;-75
2024/01/03 04:10:39;;;;;;;0.40;0.30;;;8.20;99.90;;;;;;4996758;28;20543;-76
2024/01/03 04:13:07;;;;;;;0.83;0.30;;;8.30;99.90;;;;;;5011101;28;20490;-77
2024/01/03 04:15:34;;;;;;;1.47;0.40;;;8.20;99.90;;;;;;4997357;28;20510;-75
2024/01/03 04:18:04;;;;;;;0.40;0.20;;;8.20;99.90;;;;;;5017952;28;20497;-78
2024/01/03 04:20:31;;;;;;;0.47;0.30;;;8.20;99.90;;;;;;5003606;28;20540;-75
2024/01/03 04:22:59;;;;;;;0.40;0.23;;;8.30;99.90;;;;;;5026281;28;20486;-77
2024/01/03 04:25:26;;;;;;;0.40;0.20;;;8.30;99.90;;;;;;5002702;28;20490;-77
2024/01/03 04:27:54;;;;;;;0.40;0.30;;;8.30;99.90;;;;;;4994453;28;20467;-75
2024/01/03 04:30:21;;;;;;;0.30;0.20;;;8.20;99.90;;;;;;5001580;28;20516;-75
2024/01/03 04:32:48;;;;;;;0.30;0.20;;;8.10;99.90;;;;;;5001521;28;20516;-76
2024/01/03 04:35:15;;;;;;;0.40;0.20;;;8.10;99.90;;;;;;5003269;28;20504;-76
2024/01/03 04:37:42;;;;;;;0.40;0.20;;;8.20;99.90;;;;;;5000148;28;20471;-75
2024/01/03 04:40:12;;;;;;;0.40;0.20;;;8.10;99.90;;;;;;5005662;28;21002;-78
2024/01/03 04:42:39;;;;;;;0.43;0.20;;;8.10;99.90;;;;;;5006084;28;20454;-76
2024/01/03 04:45:07;;;;;;;0.60;0.40;;;8.00;99.90;;;;;;5003105;28;21011;-76
2024/01/03 04:47:34;;;;;;;0.40;0.30;;;8.10;99.90;;;;;;5005697;28;20443;-76
2024/01/03 04:50:01;;;;;;;0.87;0.30;;;8.20;99.90;;;;;;5005151;28;20466;-78
2024/01/03 04:52:28;;;;;;;0.60;0.33;;;8.20;99.90;;;;;;5005870;28;20504;-79
2024/01/03 04:54:55;;;;;;;0.40;0.30;;;8.30;99.90;;;;;;5005516;28;20937;-78
2024/01/03 04:57:23;;;;;;;0.40;0.30;;;8.40;99.90;;;;;;5004353;28;20894;-76
2024/01/03 04:59:50;;;;;;;0.40;0.30;;;8.50;99.90;;;;;;5002638;28;20467;-79
2024/01/03 05:02:17;;;;;;;0.40;0.30;;;8.60;99.90;;;;;;5003382;28;21181;-79
2024/01/03 05:04:45;;;;;;;0.40;0.27;;;8.80;99.90;;;;;;4998487;28;20543;-75
2024/01/03 05:07:12;;;;;;;0.40;0.20;;;8.90;99.90;;;;;;5022487;28;20454;-78
2024/01/03 05:09:38;;;;;;;0.40;0.20;;;8.90;99.90;;;;;;5004549;28;20454;-77
2024/01/03 05:12:06;;;;;;;0.40;0.20;;;8.90;99.90;;;;;;5004354;28;20478;-77
2024/01/03 05:14:34;;;;;;;0.73;0.30;;;8.90;99.90;;;;;;5005530;28;20578;-79
2024/01/03 05:17:01;;;;;;;0.73;0.20;;;8.80;99.90;;;;;;5023795;28;20549;-78
2024/01/03 05:19:28;;;;;;;0.43;0.30;;;8.90;99.90;;;;;;5008211;28;20591;-76
2024/01/03 05:21:55;;;;;;;0.40;0.30;;;8.90;99.90;;;;;;5005179;28;20465;-75
2024/01/03 05:24:22;;;;;;;0.40;0.20;;;8.90;99.90;;;;;;5004545;28;20502;-80
2024/01/03 05:26:49;;;;;;;0.50;0.30;;;8.90;99.90;;;;;;5006120;28;20494;-76
2024/01/03 05:29:16;;;;;;;0.40;0.30;;;8.90;99.90;;;;;;4999113;28;20470;-76
2024/01/03 05:31:44;;;;;;;0.30;0.20;;;8.90;99.90;;;;;;5003541;28;20455;-75
2024/01/03 05:34:12;;;;;;;0.50;0.40;;;8.90;99.90;;;;;;5005444;28;20512;-76
2024/01/03 05:36:39;;;;;;;0.40;0.30;;;9.00;99.90;;;;;;5004335;28;20443;-79
2024/01/03 05:39:06;;;;;;;0.43;0.30;;;9.10;99.90;;;;;;5007533;28;20504;-76
2024/01/03 05:41:32;;;;;;;0.40;0.20;;;8.90;99.90;;;;;;5014922;28;21013;-76
2024/01/03 05:43:59;;;;;;;0.50;0.20;;;8.90;99.90;;;;;;5003914;28;20950;-76
2024/01/03 05:46:26;;;;;;;0.40;0.20;;;8.80;99.90;;;;;;5005497;28;20506;-76
2024/01/03 05:48:55;;;;;;;0.40;0.20;;;8.80;99.90;;;;;;5006600;28;21073;-76
2024/01/03 05:51:22;;;;;;;0.60;0.30;;;8.70;99.90;;;;;;5024086;28;20892;-74
2024/01/03 05:53:49;;;;;;;0.40;0.20;;;8.60;99.90;;;;;;5028472;28;20536;-77
2024/01/03 05:56:16;;;;;;;0.40;0.20;;;8.50;99.90;;;;;;5051020;28;20455;-74
2024/01/03 05:58:43;;;;;;;0.57;0.20;;;8.50;99.90;;;;;;5030127;28;20581;-78
2024/01/03 06:01:10;;;;;;;0.40;0.23;;;8.40;99.90;;;;;;5051501;28;20457;-75
2024/01/03 06:03:37;;;;;;;0.40;0.20;;;8.50;99.90;;;;;;5041640;28;20484;-73
2024/01/03 06:06:06;;;;;;;0.40;0.20;;;8.40;99.90;;;;;;5024389;28;20575;-74
2024/01/03 06:08:33;;;;;;;0.40;0.20;;;8.40;99.90;;;;;;5042845;28;20539;-76
2024/01/03 06:11:00;;;;;;;0.37;0.20;;;8.40;99.90;;;;;;5037045;28;20553;-74
2024/01/03 06:13:29;;;;;;;0.40;0.20;;;8.50;99.90;;;;;;5028688;28;20470;-72
2024/01/03 06:15:56;;;;;;;0.40;0.23;;;8.50;99.90;;;;;;5027366;28;20963;-74
2024/01/03 06:18:23;;;;;;;0.50;0.20;;;8.60;99.90;;;;;;5036070;28;20688;-72
2024/01/03 06:20:50;;;;;;;0.40;0.20;;;8.50;99.90;;;;;;5054815;28;20443;-72
2024/01/03 06:23:18;;;;;;;0.40;0.20;;;8.40;99.90;;;;;;5029662;28;20859;-72
2024/01/03 06:25:45;;;;;;;0.40;0.20;;;8.50;99.90;;;;;;5037063;28;20545;-72
2024/01/03 06:28:12;;;;;;;0.63;0.20;;;8.50;99.90;;;;;;5059330;28;20460;-72
2024/01/03 06:30:39;;;;;;;0.70;0.30;;;8.40;99.90;;;;;;5015554;28;20578;-72
2024/01/03 06:33:07;;;;;;;0.40;0.20;;;8.30;99.90;;;;;;5030458;28;20487;-72
2024/01/03 06:35:33;;;;;;;0.50;0.50;;;8.30;99.90;;;;;;5040788;28;20453;-72
2024/01/03 06:38:03;;;;;;;3.47;2.07;;;8.40;99.90;;;;;;5027026;28;20803;-77
2024/01/03 06:40:32;;;;;;;3.63;2.40;;;8.40;99.90;;;;;;5024684;28;20463;-75
2024/01/03 06:42:59;;;;;;;5.40;3.90;;;8.40;99.90;;;;;;5026080;28;20534;-73
2024/01/03 06:45:26;;;;;;;4.33;3.70;;;8.30;99.90;;;;;;5020496;28;20571;-73
2024/01/03 06:47:53;;;;;;;0.70;0.60;;;8.30;99.90;;;;;;5006172;28;20525;-77
2024/01/03 06:50:20;;;;;;;3.20;3.00;;;8.30;99.90;;;;;;5009891;28;20447;-73
2024/01/03 06:52:47;;;;;;;6.47;5.87;;;8.30;99.90;;;;;;5002107;28;20471;-74
2024/01/03 06:55:14;;;;;;;1.30;1.27;;;8.20;99.90;;;;;;5004442;28;20446;-82
2024/01/03 06:57:44;;;;;;;1.20;1.10;;;8.10;99.90;;;;;;5038236;28;20872;-77
2024/01/03 07:00:12;;;;;;;3.07;2.87;;;8.10;99.90;;;;;;5071204;28;20443;-76
2024/01/03 07:02:39;;;;;;;1.40;1.10;;;8.10;99.90;;;;;;5042210;28;20449;-74
2024/01/03 07:05:06;;;;;;;7.83;7.03;;;8.00;99.90;;;;;;5009749;28;20527;-76
2024/01/03 07:07:33;;;;;;;1.03;0.97;;;8.00;99.90;;;;;;5050690;28;20535;-75
2024/01/03 07:10:00;;;;;;;1.73;0.43;;;8.00;99.90;;;;;;5037000;28;20460;-75
2024/01/03 07:12:27;;;;;;;0.40;0.30;;;8.10;99.90;;;;;;5038684;28;20494;-74
2024/01/03 07:14:56;;;;;;;0.80;0.60;;;8.10;99.90;;;;;;5066007;28;20457;-82
2024/01/03 07:17:23;;;;;;;0.50;0.40;;;8.20;99.90;;;;;;5004524;28;1214205;-73
2024/01/03 07:19:50;;;;;;;2.50;1.20;;;8.20;99.90;;;;;;5029247;28;20445;-75
2024/01/03 07:22:17;;;;;;;0.80;0.50;;;8.30;99.90;;;;;;5017915;28;20521;-73
2024/01/03 07:24:44;;;;;;;0.40;0.37;;;8.40;99.90;;;;;;5055024;28;21112;-76
2024/01/03 07:27:11;;;;;;;0.40;0.30;;;8.50;99.90;;;;;;5048070;28;20450;-73
2024/01/03 07:29:38;;;;;;;1.80;0.20;;;8.50;99.90;;;;;;5055050;28;20524;-73
2024/01/03 07:32:07;;;;;;;0.40;0.30;;;8.60;99.90;;;;;;5012570;28;20539;-72
2024/01/03 07:34:34;;;;;;;0.40;0.30;;;8.60;99.90;;;;;;5035606;28;20465;-73
2024/01/03 07:37:01;;;;;;;0.40;0.20;;;8.50;99.90;;;;;;5052281;28;20784;-74
2024/01/03 07:39:27;;;;;;;0.50;0.30;;;8.50;99.90;;;;;;5058233;28;20519;-73
2024/01/03 07:41:54;;;;;;;0.30;0.20;;;8.60;99.90;;;;;;5084002;28;20458;-73
2024/01/03 07:44:21;;;;;;;0.40;0.20;;;8.60;99.90;;;;;;5058542;28;20503;-73
2024/01/03 07:46:48;;;;;;;0.30;0.20;;;8.60;99.90;;;;;;5030481;28;20579;-73
2024/01/03 07:49:16;;;;;;;0.40;0.20;;;8.60;99.90;;;;;;5055639;28;20976;-73
2024/01/03 07:51:45;;;;;;;0.30;0.20;;;8.60;99.90;;;;;;5025182;28;21226;-73
2024/01/03 07:54:12;;;;;;;0.40;0.20;;;8.70;99.90;;;;;;5021806;28;20472;-73
2024/01/03 07:56:40;;;;;;;0.40;0.20;;;8.80;99.90;;;;;;5012329;28;20867;-73
2024/01/03 07:59:07;;;;;;;0.50;0.20;;;8.90;99.90;;;;;;5012113;28;20524;-73
2024/01/03 08:01:35;;;;;;;0.57;0.30;;;9.00;99.90;;;;;;5007921;28;20492;-76
2024/01/03 08:04:04;;;;;;;1.87;0.37;;;9.10;99.90;;;;;;5018366;28;20465;-73
2024/01/03 08:06:33;;;;;;;0.83;0.33;;;9.20;99.90;;;;;;4996258;28;20609;-73
2024/01/03 08:09:00;;;;;;;0.40;0.20;;;9.20;99.90;;;;;;5067442;28;20468;-73
2024/01/03 08:11:27;;;;;;;0.40;0.20;;;9.10;99.90;;;;;;5089858;28;20450;-75
2024/01/03 08:13:54;;;;;;;0.50;0.30;;;9.20;99.90;;;;;;5028258;28;20539;-72
2024/01/03 08:16:20;;;;;;;0.40;0.20;;;9.30;99.90;;;;;;4999875;28;21255;-73
2024/01/03 08:18:47;;;;;;;0.40;0.20;;;9.30;99.90;;;;;;5038236;28;20457;-72
2024/01/03 08:21:15;;;;;;;0.43;0.30;;;9.30;99.90;;;;;;5051053;28;20468;-73
2024/01/03 08:23:43;;;;;;;0.40;0.23;;;9.30;99.90;;;;;;5042066;28;20457;-74
2024/01/03 08:26:11;;;;;;;0.40;0.20;;;9.40;99.90;;;;;;5033191;28;20539;-73
2024/01/03 08:28:40;;;;;;;0.40;0.23;;;9.40;99.90;;;;;;5080064;28;20450;-73
2024/01/03 08:31:07;;;;;;;0.40;0.30;;;9.40;99.90;;;;;;5025431;28;20472;-74
2024/01/03 08:33:36;;;;;;;0.40;0.20;;;9.40;99.90;;;;;;5026479;28;20461;-73
2024/01/03 08:36:03;;;;;;;0.40;0.20;;;9.40;99.90;;;;;;5048585;28;20987;-73
2024/01/03 08:38:31;;;;;;;0.70;0.40;;;9.40;99.90;;;;;;5036525;28;20462;-73
2024/01/03 08:40:59;;;;;;;0.40;0.20;;;9.50;99.90;;;;;;5061587;28;21048;-73
2024/01/03 08:43:26;;;;;;;0.40;0.20;;;9.50;99.90;;;;;;5028295;28;20513;-73
2024/01/03 08:45:53;;;;;;;0.30;0.20;;;9.60;99.90;;;;;;5035859;28;20546;-74
2024/01/03 08:48:20;;;;;;;0.30;0.20;;;9.50;99.90;;;;;;4997753;28;20466;-72
2024/01/03 08:50:47;;;;;;;0.70;0.30;;;9.50;99.90;;;;;;5048833;28;20448;-73
2024/01/03 08:53:14;;;;;;;0.40;0.20;;;9.40;99.90;;;;;;5031861;28;21042;-74
2024/01/03 08:55:41;;;;;;;0.50;0.30;;;9.30;99.90;;;;;;5018473;28;20474;-73
2024/01/03 08:58:09;;;;;;;0.30;0.20;;;9.20;99.90;;;;;;5033188;28;20483;-75
2024/01/03 09:00:36;;;;;;;0.40;0.30;;;9.20;99.90;;;;;;5024160;28;20541;-75
2024/01/03 09:03:03;;;;;;;0.40;0.30;;;9.10;99.90;;;;;;5016549;28;20947;-73
2024/01/03 09:05:30;;;;;;;0.30;0.20;;;9.20;99.90;;;;;;5025278;28;20492;-77
2024/01/03 09:07:57;;;;;;;0.40;0.20;;;9.40;99.90;;;;;;5031880;28;20936;-75
2024/01/03 09:10:23;;;;;;;0.53;0.27;;;9.40;99.90;;;;;;5010070;28;20467;-76
2024/01/03 09:12:50;;;;;;;0.43;0.20;;;9.50;99.90;;;;;;5027510;28;20499;-73
2024/01/03 09:15:19;;;;;;;0.37;0.20;;;9.50;99.90;;;;;;5005030;28;21091;-73
2024/01/03 09:17:46;;;;;;;0.70;0.20;;;9.50;99.90;;;;;;5032228;28;20561;-73
2024/01/03 09:20:13;;;;;;;0.40;0.20;;;9.40;99.90;;;;;;5018726;28;20449;-73
2024/01/03 09:22:40;;;;;;;0.30;0.20;;;9.30;99.90;;;;;;5013679;28;20483;-73
2024/01/03 09:25:08;;;;;;;0.73;0.20;;;9.20;99.90;;;;;;5054028;28;20513;-75
2024/01/03 09:27:35;;;;;;;0.40;0.30;;;9.10;99.90;;;;;;5017151;28;20438;-74
2024/01/03 09:30:03;;;;;;;0.30;0.20;;;9.20;99.90;;;;;;5009563;28;20471;-78
2024/01/03 09:32:31;;;;;;;0.40;0.30;;;9.20;99.90;;;;;;5010088;28;20490;-73
2024/01/03 09:34:58;;;;;;;0.30;0.20;;;9.30;99.90;;;;;;5026600;28;20484;-73
2024/01/03 09:37:25;;;;;;;0.40;0.20;;;9.50;99.90;;;;;;5007959;28;20492;-73
2024/01/03 09:39:52;;;;;;;0.40;0.30;;;9.60;99.90;;;;;;5002047;28;20469;-74
2024/01/03 09:42:19;;;;;;;0.93;0.23;;;9.60;99.90;;;;;;5005535;28;20445;-72
2024/01/03 09:44:46;;;;;;;0.63;0.20;;;9.70;99.90;;;;;;5004254;28;20452;-77
2024/01/03 09:47:13;;;;;;;1.17;0.40;;;9.80;99.90;;;;;;5004405;28;20489;-76
2024/01/03 09:49:42;;;;;;;0.40;0.20;;;9.80;99.90;;;;;;5006691;28;20794;-73
2024/01/03 09:52:09;;;;;;;0.60;0.20;;;9.90;99.90;;;;;;5024701;28;20576;-77
2024/01/03 09:54:36;;;;;;;0.70;0.23;;;10.00;99.90;;;;;;5003962;28;21211;-75
2024/01/03 09:57:03;;;;;;;1.17;0.27;;;10.10;99.90;;;;;;5004015;28;20450;-73
2024/01/03 09:59:30;;;;;;;0.53;0.33;;;10.20;99.90;;;;;;5004977;28;20450;-75
2024/01/03 10:01:58;;;;;;;0.40;0.20;;;10.20;99.90;;;;;;5003258;28;21006;-73
2024/01/03 10:04:25;;;;;;;0.40;0.20;;;10.10;99.90;;;;;;5012859;28;20442;-73
2024/01/03 10:06:57;;;;;;;0.40;0.20;;;10.10;99.90;;;;;;5013602;28;20480;-73
2024/01/03 10:09:25;;;;;;;0.50;0.30;;;10.20;99.90;;;;;;5004418;28;20460;-74
2024/01/03 10:11:53;;;;;;;3.30;0.50;;;10.20;99.90;;;;;;4998479;28;20470;-73
2024/01/03 10:14:21;;;;;;;0.50;0.30;;;10.20;99.90;;;;;;5004915;28;20463;-73
2024/01/03 10:16:49;;;;;;;0.50;0.30;;;10.10;99.90;;;;;;5010181;28;20510;-73
2024/01/03 10:19:17;;;;;;;0.70;0.30;;;10.10;99.90;;;;;;5007194;28;20454;-73
2024/01/03 10:21:49;;;;;;;0.40;0.20;;;10.10;99.90;;;;;;4997486;28;20481;-75
2024/01/03 10:24:18;;;;;;;0.40;0.30;;;10.00;99.90;;;;;;5001897;28;20526;-73
2024/01/03 10:26:45;;;;;;;0.50;0.30;;;10.10;99.90;;;;;;5011791;28;20488;-73
2024/01/03 10:29:14;;;;;;;0.50;0.30;;;10.10;99.90;;;;;;5009299;28;20450;-75
2024/01/03 10:31:41;;;;;;;0.40;0.23;;;10.10;99.90;;;;;;5002993;28;20474;-73
2024/01/03 10:34:12;;;;;;;0.40;0.23;;;10.00;99.90;;;;;;5004486;28;20521;-74
2024/01/03 10:36:40;;;;;;;0.40;0.30;;;10.00;99.90;;;;;;5002381;28;20476;-72
2024/01/03 10:39:10;;;;;;;0.40;0.20;;;9.80;99.90;;;;;;5004221;28;20488;-73
2024/01/03 10:41:41;;;;;;;0.40;0.20;;;9.70;99.90;;;;;;5004068;28;20604;-75
2024/01/03 10:44:11;;;;;;;0.70;0.40;;;9.70;99.90;;;;;;4990735;28;20518;-73
2024/01/03 10:46:39;;;;;;;0.70;0.30;;;9.90;99.90;;;;;;5003852;28;21103;-73
2024/01/03 10:49:07;;;;;;;0.50;0.30;;;10.10;99.90;;;;;;4991123;28;21231;-76
2024/01/03 10:51:40;;;;;;;0.37;0.20;;;10.20;99.90;;;;;;5003499;28;20537;-76
2024/01/03 10:54:08;;;;;;;0.50;0.30;;;10.30;99.90;;;;;;5003858;28;20573;-73
2024/01/03 10:56:36;;;;;;;1.27;0.37;;;10.50;99.90;;;;;;5003992;28;20442;-71
2024/01/03 10:59:06;;;;;;;0.70;0.40;;;10.50;99.90;;;;;;4999258;28;20486;-72
2024/01/03 11:01:38;;;;;;;0.40;0.20;;;10.50;99.90;;;;;;5002401;28;21019;-71
2024/01/03 11:04:17;;;;;;;0.40;0.30;;;10.60;99.90;;;;;;4997645;28;21076;-75
2024/01/03 11:06:57;;;;;;;0.80;0.63;;;10.40;99.90;;;;;;4993828;28;20568;-74
2024/01/03 11:09:25;;;;;;;0.90;0.30;;;10.40;99.90;;;;;;5003414;28;20520;-74
2024/01/03 11:12:06;;;;;;;1.23;0.30;;;10.30;99.90;;;;;;5004095;28;20465;-73
2024/01/03 11:14:35;;;;;;;0.77;0.30;;;10.40;99.90;;;;;;5002503;28;20454;-74
2024/01/03 11:17:02;;;;;;;0.50;0.30;;;10.50;99.90;;;;;;5021631;28;20540;-73
2024/01/03 11:19:30;;;;;;;3.67;0.40;;;10.50;99.90;;;;;;5001956;28;20592;-73
2024/01/03 11:22:02;;;;;;;0.63;0.30;;;10.60;99.90;;;;;;5011734;28;20481;-78
2024/01/03 11:24:49;;;;;;;1.33;0.30;;;10.60;99.90;;;;;;5004298;28;20457;-72
2024/01/03 11:27:23;;;;;;;1.90;0.30;;;10.60;99.90;;;;;;5002876;28;21190;-74
2024/01/03 11:29:53;;;;;;;0.70;0.30;;;10.50;99.90;;;;;;5003041;28;20469;-73
2024/01/03 11:32:28;;;;;;;1.00;0.40;;;10.40;99.90;;;;;;4999690;28;21136;-73
2024/01/03 11:34:55;;;;;;;0.57;0.30;;;10.40;99.90;;;;;;5003660;28;20536;-73
2024/01/03 11:37:38;;;;;;;1.13;0.27;;;10.40;99.90;;;;;;5003267;28;20455;-73
2024/01/03 11:40:10;;;;;;;0.60;0.30;;;10.50;99.90;;;;;;5003514;28;21020;-74
2024/01/03 11:42:38;;;;;;;0.50;0.30;;;10.50;99.90;;;;;;5003266;28;20543;-71
2024/01/03 11:45:09;;;;;;;0.60;0.33;;;10.50;99.90;;;;;;5003487;28;20533;-71
2024/01/03 11:47:38;;;;;;;0.40;0.30;;;10.60;99.90;;;;;;4996234;28;20492;-71
2024/01/03 11:50:08;;;;;;;0.47;0.30;;;10.70;99.90;;;;;;4994213;28;20472;-75
2024/01/03 11:52:37;;;;;;;0.40;0.30;;;10.80;99.90;;;;;;5003888;28;20456;-71
2024/01/03 11:55:10;;;;;;;0.40;0.20;;;10.80;99.90;;;;;;5011899;28;20982;-72
2024/01/03 11:57:42;;;;;;;0.50;0.30;;;10.80;99.90;;;;;;5002531;28;20469;-75
2024/01/03 12:00:12;;;;;;;0.40;0.30;;;10.70;99.90;;;;;;5003203;28;20540;-74
2024/01/03 12:02:50;;;;;;;0.40;0.23;;;10.80;99.90;;;;;;5022444;28;20539;-70
2024/01/03 12:05:17;;;;;;;1.43;0.20;;;11.00;99.90;;;;;;4996285;28;21083;-71
2024/01/03 12:07:45;;;;;;;0.60;0.30;;;11.00;99.90;;;;;;5012901;28;20570;-69
2024/01/03 12:10:12;;;;;;;0.40;0.30;;;11.10;99.90;;;;;;5016331;28;20841;-71
2024/01/03 12:12:40;;;;;;;0.50;0.20;;;11.10;99.90;;;;;;5060505;28;20442;-73
2024/01/03 12:15:08;;;;;;;0.40;0.30;;;11.10;99.90;;;;;;5012591;28;20486;-71
2024/01/03 12:17:37;;;;;;;0.50;0.30;;;11.10;99.90;;;;;;5054873;28;20497;-78
2024/01/03 12:20:12;;;;;;;1.63;0.40;;;11.00;99.90;;;;;;5012774;28;20486;-74
2024/01/03 12:22:40;;;;;;;0.40;0.30;;;10.90;99.90;;;;;;5006597;28;20465;-74
2024/01/03 12:25:08;;;;;;;0.40;0.20;;;10.80;99.90;;;;;;5003845;28;20549;-74
2024/01/03 12:27:35;;;;;;;0.40;0.20;;;10.90;99.90;;;;;;5001581;28;20533;-74
2024/01/03 12:30:16;;;;;;;0.40;0.20;;;11.00;99.90;;;;;;5004130;28;20498;-74
2024/01/03 12:32:45;;;;;;;0.40;0.30;;;11.00;99.90;;;;;;5003507;28;20527;-74
2024/01/03 12:35:13;;;;;;;1.00;0.40;;;11.10;99.90;;;;;;5056245;28;21940;-75
2024/01/03 12:37:44;;;;;;;0.40;0.30;;;11.10;99.90;;;;;;5004964;28;20549;-75
2024/01/03 12:40:18;;;;;;;3.23;0.30;;;11.20;99.90;;;;;;5003231;28;20806;-73
2024/01/03 12:42:46;;;;;;;2.03;0.30;;;11.30;99.90;;;;;;5002195;28;20809;-76
2024/01/03 12:45:13;;;;;;;1.23;0.50;;;11.30;99.90;;;;;;5002282;28;20983;-74
2024/01/03 12:47:41;;;;;;;2.33;0.30;;;11.30;99.90;;;;;;5002120;28;20547;-74
2024/01/03 12:50:10;;;;;;;0.50;0.30;;;11.40;99.90;;;;;;4999928;28;20471;-74
2024/01/03 12:52:37;;;;;;;0.40;0.23;;;11.50;99.90;;;;;;4988879;28;20504;-74
2024/01/03 12:55:05;;;;;;;0.60;0.40;;;11.50;99.90;;;;;;5001201;28;20466;-74
2024/01/03 12:57:32;;;;;;;0.40;0.30;;;11.50;99.90;;;;;;5002245;28;20453;-74
2024/01/03 13:00:01;;;;;;;1.13;0.20;;;11.70;99.90;;;;;;5003898;28;20494;-74